createdAt,value
2019-02-28T00:00:10.570Z,10.94
2019-02-28T00:01:11.737Z,10.94
2019-02-28T00:02:10.598Z,10.97
2019-02-28T00:03:10.613Z,10.88
2019-02-28T00:04:10.618Z,10.85
2019-02-28T00:05:10.631Z,10.88
2019-02-28T00:06:12.613Z,10.82
2019-02-28T00:07:10.661Z,10.85
2019-02-28T00:08:10.670Z,10.79
2019-02-28T00:09:10.689Z,10.78
2019-02-28T00:10:10.700Z,10.74
2019-02-28T00:11:10.707Z,10.66
2019-02-28T00:12:13.652Z,10.63
2019-02-28T00:13:10.753Z,10.53
2019-02-28T00:14:10.752Z,10.55
2019-02-28T00:15:10.764Z,10.56
2019-02-28T00:16:10.769Z,10.51
2019-02-28T00:17:10.789Z,10.47
2019-02-28T00:18:10.794Z,10.44
2019-02-28T00:19:10.806Z,10.38
2019-02-28T00:20:10.821Z,10.48
2019-02-28T00:21:10.834Z,10.51
2019-02-28T00:22:11.395Z,10.47
2019-02-28T00:23:10.857Z,10.48
2019-02-28T00:24:10.872Z,10.45
2019-02-28T00:25:10.897Z,10.53
2019-02-28T00:26:11.618Z,10.56
2019-02-28T00:27:10.912Z,10.64
2019-02-28T00:28:10.925Z,10.61
2019-02-28T00:29:10.934Z,10.56
2019-02-28T00:30:10.942Z,10.53
2019-02-28T00:31:14.537Z,10.53
2019-02-28T00:32:10.974Z,10.45
2019-02-28T00:33:10.994Z,10.45
2019-02-28T00:34:11.020Z,10.48
2019-02-28T00:35:13.367Z,10.47
2019-02-28T00:36:11.023Z,10.48
2019-02-28T00:37:11.147Z,10.45
2019-02-28T00:38:11.054Z,10.36
2019-02-28T00:39:11.054Z,10.26
2019-02-28T00:40:11.085Z,10.27
2019-02-28T00:41:11.089Z,10.29
2019-02-28T00:42:11.103Z,10.14
2019-02-28T00:43:11.124Z,10.17
2019-02-28T00:44:11.122Z,10.14
2019-02-28T00:45:11.145Z,10.17
2019-02-28T00:46:11.152Z,10.11
2019-02-28T00:47:11.166Z,10.12
2019-02-28T00:48:11.165Z,10.12
2019-02-28T00:49:11.184Z,10.01
2019-02-28T00:50:11.190Z,10.05
2019-02-28T00:51:11.259Z,10.05
2019-02-28T00:52:11.282Z,10.01
2019-02-28T00:53:11.239Z,9.99
2019-02-28T00:54:11.247Z,10.02
2019-02-28T00:55:14.401Z,9.96
2019-02-28T00:56:11.266Z,10.02
2019-02-28T00:57:11.282Z,9.91
2019-02-28T00:58:11.290Z,9.93
2019-02-28T00:59:11.299Z,10.02
2019-02-28T01:00:11.312Z,9.89
2019-02-28T01:01:11.695Z,10.01
2019-02-28T01:02:11.345Z,10.08
2019-02-28T01:03:11.353Z,9.97
2019-02-28T01:04:11.367Z,10.08
2019-02-28T01:05:11.380Z,10.09
2019-02-28T01:06:11.386Z,10.11
2019-02-28T01:07:13.255Z,10.04
2019-02-28T01:08:11.427Z,10.07
2019-02-28T01:09:11.434Z,10.04
2019-02-28T01:10:11.437Z,10.08
2019-02-28T01:11:13.261Z,10.04
2019-02-28T01:12:11.549Z,10.04
2019-02-28T01:13:11.475Z,10.02
2019-02-28T01:14:11.494Z,10.02
2019-02-28T01:15:11.501Z,9.89
2019-02-28T01:16:11.514Z,9.97
2019-02-28T01:17:11.532Z,9.89
2019-02-28T01:18:11.536Z,9.93
2019-02-28T01:19:11.558Z,9.89
2019-02-28T01:20:14.896Z,9.90
2019-02-28T01:21:11.575Z,9.75
2019-02-28T01:22:11.588Z,9.84
2019-02-28T01:23:11.598Z,9.81
2019-02-28T01:24:11.616Z,9.81
2019-02-28T01:25:11.622Z,9.74
2019-02-28T01:26:12.411Z,9.78
2019-02-28T01:27:11.651Z,9.72
2019-02-28T01:28:11.659Z,9.71
2019-02-28T01:29:11.677Z,9.68
2019-02-28T01:30:11.693Z,9.78
2019-02-28T01:31:12.285Z,9.68
2019-02-28T01:32:15.248Z,9.66
2019-02-28T01:33:11.719Z,9.64
2019-02-28T01:34:11.729Z,9.65
2019-02-28T01:35:11.734Z,9.51
2019-02-28T01:36:12.263Z,9.56
2019-02-28T01:37:11.760Z,9.51
2019-02-28T01:38:11.780Z,9.72
2019-02-28T01:39:11.798Z,9.71
2019-02-28T01:40:11.802Z,9.66
2019-02-28T01:41:11.896Z,9.74
2019-02-28T01:42:11.831Z,9.75
2019-02-28T01:43:11.832Z,9.72
2019-02-28T01:44:11.849Z,9.76
2019-02-28T01:45:11.857Z,9.71
2019-02-28T01:46:14.437Z,9.72
2019-02-28T01:47:11.882Z,9.66
2019-02-28T01:48:11.897Z,9.71
2019-02-28T01:49:11.907Z,9.65
2019-02-28T01:50:11.932Z,9.75
2019-02-28T01:51:11.931Z,9.74
2019-02-28T01:52:11.940Z,9.66
2019-02-28T01:53:11.955Z,9.60
2019-02-28T01:54:11.966Z,9.60
2019-02-28T01:55:11.984Z,9.56
2019-02-28T01:56:12.003Z,9.65
2019-02-28T01:57:12.001Z,9.57
2019-02-28T01:58:16.420Z,9.54
2019-02-28T01:59:12.038Z,9.54
2019-02-28T02:00:12.043Z,9.61
2019-02-28T02:01:12.061Z,9.53
2019-02-28T02:02:12.066Z,9.68
2019-02-28T02:03:12.073Z,9.48
2019-02-28T02:04:13.142Z,9.54
2019-02-28T02:05:12.100Z,9.50
2019-02-28T02:06:12.110Z,9.48
2019-02-28T02:07:12.121Z,9.42
2019-02-28T02:08:12.135Z,9.43
2019-02-28T02:09:12.168Z,9.40
2019-02-28T02:10:12.159Z,9.40
2019-02-28T02:11:12.176Z,9.42
2019-02-28T02:12:12.187Z,9.42
2019-02-28T02:13:12.197Z,9.38
2019-02-28T02:14:12.204Z,9.40
2019-02-28T02:15:12.222Z,9.42
2019-02-28T02:16:12.239Z,9.38
2019-02-28T02:17:12.247Z,9.39
2019-02-28T02:18:12.253Z,9.26
2019-02-28T02:19:17.495Z,9.31
2019-02-28T02:20:12.276Z,9.29
2019-02-28T02:21:12.334Z,9.26
2019-02-28T02:22:12.303Z,9.31
2019-02-28T02:23:12.310Z,9.15
2019-02-28T02:24:12.331Z,9.13
2019-02-28T02:25:12.396Z,9.11
2019-02-28T02:26:12.346Z,9.11
2019-02-28T02:27:12.429Z,9.11
2019-02-28T02:28:12.373Z,8.99
2019-02-28T02:29:12.392Z,8.98
2019-02-28T02:30:15.218Z,8.96
2019-02-28T02:31:12.415Z,9.08
2019-02-28T02:32:12.428Z,9.08
2019-02-28T02:33:14.419Z,9.08
2019-02-28T02:34:12.441Z,9.08
2019-02-28T02:35:12.467Z,9.13
2019-02-28T02:36:16.272Z,8.96
2019-02-28T02:37:12.479Z,8.96
2019-02-28T02:38:12.491Z,9.02
2019-02-28T02:39:16.430Z,8.94
2019-02-28T02:40:12.542Z,9.01
2019-02-28T02:41:12.525Z,8.87
2019-02-28T02:42:12.543Z,8.91
2019-02-28T02:43:12.552Z,8.91
2019-02-28T02:44:12.560Z,8.92
2019-02-28T02:45:12.583Z,8.96
2019-02-28T02:46:19.737Z,8.95
2019-02-28T02:47:12.594Z,8.92
2019-02-28T02:48:12.615Z,8.91
2019-02-28T02:49:18.374Z,8.92
2019-02-28T02:50:12.638Z,8.84
2019-02-28T02:51:12.787Z,8.89
2019-02-28T02:52:12.657Z,8.84
2019-02-28T02:53:12.672Z,8.84
2019-02-28T02:54:18.114Z,8.83
2019-02-28T02:55:12.696Z,8.80
2019-02-28T02:56:12.701Z,8.87
2019-02-28T02:57:14.014Z,8.84
2019-02-28T02:58:12.725Z,8.83
2019-02-28T02:59:12.742Z,8.83
2019-02-28T03:00:13.829Z,8.79
2019-02-28T03:01:12.781Z,8.74
2019-02-28T03:02:13.250Z,8.79
2019-02-28T03:03:12.782Z,8.80
2019-02-28T03:04:21.748Z,8.71
2019-02-28T03:05:12.816Z,8.74
2019-02-28T03:06:14.331Z,8.66
2019-02-28T03:07:12.839Z,8.76
2019-02-28T03:08:12.871Z,8.80
2019-02-28T03:09:12.865Z,8.70
2019-02-28T03:10:17.645Z,8.79
2019-02-28T03:11:12.914Z,8.70
2019-02-28T03:12:12.886Z,8.76
2019-02-28T03:13:12.901Z,8.73
2019-02-28T03:14:16.513Z,8.68
2019-02-28T03:15:12.923Z,8.62
2019-02-28T03:16:12.938Z,8.68
2019-02-28T03:17:12.946Z,8.70
2019-02-28T03:18:13.038Z,8.79
2019-02-28T03:19:12.979Z,8.68
2019-02-28T03:20:12.980Z,8.77
2019-02-28T03:21:15.074Z,8.61
2019-02-28T03:22:13.004Z,8.76
2019-02-28T03:23:13.018Z,8.71
2019-02-28T03:24:15.194Z,8.61
2019-02-28T03:25:13.038Z,8.73
2019-02-28T03:26:13.051Z,8.71
2019-02-28T03:27:18.566Z,8.62
2019-02-28T03:28:14.035Z,8.58
2019-02-28T03:29:13.087Z,8.58
2019-02-28T03:30:26.361Z,8.55
2019-02-28T03:31:15.399Z,8.53
2019-02-28T03:32:13.166Z,8.58
2019-02-28T03:33:24.067Z,8.61
2019-02-28T03:34:14.252Z,8.55
2019-02-28T03:35:13.181Z,8.63
2019-02-28T03:36:15.929Z,8.59
2019-02-28T03:37:13.184Z,8.68
2019-02-28T03:38:13.188Z,8.61
2019-02-28T03:39:13.216Z,8.65
2019-02-28T03:40:13.222Z,8.58
2019-02-28T03:41:17.839Z,8.65
2019-02-28T03:42:13.243Z,8.56
2019-02-28T03:43:13.242Z,8.56
2019-02-28T03:44:20.102Z,8.55
2019-02-28T03:45:13.271Z,8.55
2019-02-28T03:46:13.285Z,8.55
2019-02-28T03:47:13.300Z,8.47
2019-02-28T03:48:13.315Z,8.47
2019-02-28T03:49:13.314Z,8.50
2019-02-28T03:50:13.371Z,8.50
2019-02-28T03:51:13.347Z,8.43
2019-02-28T03:52:13.353Z,8.37
2019-02-28T03:53:19.584Z,8.40
2019-02-28T03:54:13.373Z,8.37
2019-02-28T03:55:13.399Z,8.29
2019-02-28T03:56:14.854Z,8.33
2019-02-28T03:57:13.406Z,8.34
2019-02-28T03:58:13.428Z,8.28
2019-02-28T03:59:18.143Z,8.23
2019-02-28T04:00:13.532Z,8.26
2019-02-28T04:01:13.450Z,8.26
2019-02-28T04:02:20.807Z,8.25
2019-02-28T04:03:13.474Z,8.22
2019-02-28T04:04:13.485Z,8.22
2019-02-28T04:05:13.533Z,8.18
2019-02-28T04:06:13.607Z,8.33
2019-02-28T04:07:15.986Z,8.28
2019-02-28T04:08:13.529Z,8.23
2019-02-28T04:09:13.552Z,8.22
2019-02-28T04:10:16.763Z,8.20
2019-02-28T04:11:13.565Z,8.22
2019-02-28T04:12:13.578Z,8.15
2019-02-28T04:13:13.825Z,8.18
2019-02-28T04:14:13.605Z,8.22
2019-02-28T04:15:13.620Z,8.15
2019-02-28T04:16:13.636Z,8.18
2019-02-28T04:17:13.669Z,8.11
2019-02-28T04:18:13.646Z,8.18
2019-02-28T04:19:13.656Z,8.02
2019-02-28T04:20:13.678Z,8.01
2019-02-28T04:21:13.696Z,8.07
2019-02-28T04:22:13.690Z,8.07
2019-02-28T04:23:13.713Z,8.05
2019-02-28T04:24:14.116Z,8.12
2019-02-28T04:25:13.737Z,8.07
2019-02-28T04:26:13.756Z,8.12
2019-02-28T04:27:13.779Z,8.02
2019-02-28T04:28:18.552Z,8.07
2019-02-28T04:29:13.779Z,8.02
2019-02-28T04:30:13.781Z,8.00
2019-02-28T04:31:18.721Z,7.98
2019-02-28T04:32:13.812Z,8.02
2019-02-28T04:33:13.836Z,8.01
2019-02-28T04:34:14.451Z,8.01
2019-02-28T04:35:13.858Z,7.93
2019-02-28T04:36:13.862Z,7.97
2019-02-28T04:37:14.144Z,7.95
2019-02-28T04:38:13.916Z,8.00
2019-02-28T04:39:13.887Z,7.87
2019-02-28T04:40:13.897Z,7.95
2019-02-28T04:41:13.926Z,7.98
2019-02-28T04:42:13.916Z,7.90
2019-02-28T04:43:13.933Z,7.89
2019-02-28T04:44:15.427Z,7.90
2019-02-28T04:45:13.955Z,7.89
2019-02-28T04:46:13.965Z,7.92
2019-02-28T04:47:13.976Z,7.93
2019-02-28T04:48:14.696Z,7.85
2019-02-28T04:49:14.000Z,7.92
2019-02-28T04:50:14.015Z,7.87
2019-02-28T04:51:14.020Z,7.86
2019-02-28T04:52:14.031Z,7.85
2019-02-28T04:53:14.044Z,7.92
2019-02-28T04:54:14.068Z,7.89
2019-02-28T04:55:14.068Z,7.86
2019-02-28T04:56:14.092Z,7.83
2019-02-28T04:57:14.103Z,7.92
2019-02-28T04:58:14.102Z,7.85
2019-02-28T04:59:14.128Z,7.89
2019-02-28T05:00:14.125Z,7.92
2019-02-28T05:01:14.148Z,7.86
2019-02-28T05:02:14.144Z,7.85
2019-02-28T05:03:14.158Z,7.90
2019-02-28T05:04:14.171Z,7.82
2019-02-28T05:05:14.191Z,7.79
2019-02-28T05:06:14.202Z,7.87
2019-02-28T05:07:14.206Z,7.80
2019-02-28T05:08:14.232Z,7.82
2019-02-28T05:09:15.117Z,7.80
2019-02-28T05:10:14.273Z,7.86
2019-02-28T05:11:14.290Z,7.82
2019-02-28T05:12:14.343Z,7.86
2019-02-28T05:13:14.950Z,7.83
2019-02-28T05:14:14.282Z,7.83
2019-02-28T05:15:14.296Z,7.72
2019-02-28T05:16:14.305Z,7.77
2019-02-28T05:17:14.323Z,7.77
2019-02-28T05:18:14.328Z,7.67
2019-02-28T05:19:14.341Z,7.58
2019-02-28T05:20:14.351Z,7.58
2019-02-28T05:21:16.593Z,7.60
2019-02-28T05:22:14.382Z,7.68
2019-02-28T05:23:14.383Z,7.57
2019-02-28T05:24:14.400Z,7.67
2019-02-28T05:25:17.785Z,7.60
2019-02-28T05:26:14.446Z,7.55
2019-02-28T05:27:14.453Z,7.48
2019-02-28T05:28:14.452Z,7.58
2019-02-28T05:29:14.463Z,7.60
2019-02-28T05:30:17.865Z,7.48
2019-02-28T05:31:14.486Z,7.50
2019-02-28T05:32:14.586Z,7.58
2019-02-28T05:33:14.554Z,7.45
2019-02-28T05:34:16.764Z,7.55
2019-02-28T05:35:14.886Z,7.53
2019-02-28T05:36:14.758Z,7.58
2019-02-28T05:37:14.564Z,7.58
2019-02-28T05:38:14.554Z,7.53
2019-02-28T05:39:14.595Z,7.64
2019-02-28T05:40:15.014Z,7.48
2019-02-28T05:41:15.266Z,7.53
2019-02-28T05:42:14.602Z,7.50
2019-02-28T05:43:14.614Z,7.58
2019-02-28T05:44:14.629Z,7.52
2019-02-28T05:45:15.700Z,7.53
2019-02-28T05:46:14.660Z,7.58
2019-02-28T05:47:14.664Z,7.45
2019-02-28T05:48:14.689Z,7.50
2019-02-28T05:49:14.692Z,7.52
2019-02-28T05:50:16.690Z,7.53
2019-02-28T05:51:14.707Z,7.48
2019-02-28T05:52:14.721Z,7.48
2019-02-28T05:53:14.742Z,7.42
2019-02-28T05:54:16.892Z,7.45
2019-02-28T05:55:14.776Z,7.49
2019-02-28T05:56:14.812Z,7.49
2019-02-28T05:57:14.786Z,7.45
2019-02-28T05:58:17.568Z,7.43
2019-02-28T05:59:14.801Z,7.43
2019-02-28T06:00:14.819Z,7.37
2019-02-28T06:01:14.817Z,7.40
2019-02-28T06:02:14.843Z,7.34
2019-02-28T06:03:14.838Z,7.32
2019-02-28T06:04:14.852Z,7.30
2019-02-28T06:05:14.877Z,7.31
2019-02-28T06:06:17.319Z,7.28
2019-02-28T06:07:14.989Z,7.28
2019-02-28T06:08:14.904Z,7.24
2019-02-28T06:09:15.125Z,7.27
2019-02-28T06:10:15.008Z,7.27
2019-02-28T06:11:15.414Z,7.25
2019-02-28T06:12:14.955Z,7.23
2019-02-28T06:13:15.316Z,7.21
2019-02-28T06:14:14.987Z,7.24
2019-02-28T06:15:14.980Z,7.21
2019-02-28T06:16:15.006Z,7.20
2019-02-28T06:17:17.346Z,7.21
2019-02-28T06:18:15.024Z,7.24
2019-02-28T06:19:15.016Z,7.13
2019-02-28T06:20:16.957Z,7.10
2019-02-28T06:21:15.057Z,7.10
2019-02-28T06:22:15.050Z,7.09
2019-02-28T06:23:15.110Z,7.16
2019-02-28T06:24:15.073Z,7.12
2019-02-28T06:25:22.150Z,7.24
2019-02-28T06:26:15.093Z,7.24
2019-02-28T06:27:15.105Z,7.15
2019-02-28T06:28:15.739Z,7.17
2019-02-28T06:29:15.131Z,7.16
2019-02-28T06:30:15.155Z,7.20
2019-02-28T06:31:15.292Z,7.15
2019-02-28T06:32:15.161Z,7.07
2019-02-28T06:33:15.187Z,7.15
2019-02-28T06:34:15.186Z,7.16
2019-02-28T06:35:17.577Z,7.07
2019-02-28T06:36:15.205Z,7.13
2019-02-28T06:37:15.242Z,7.20
2019-02-28T06:38:16.227Z,7.15
2019-02-28T06:39:17.445Z,7.02
2019-02-28T06:40:15.245Z,7.05
2019-02-28T06:41:15.324Z,7.03
2019-02-28T06:42:15.352Z,7.07
2019-02-28T06:43:18.681Z,7.02
2019-02-28T06:44:15.308Z,7.03
2019-02-28T06:45:15.305Z,6.94
2019-02-28T06:46:15.381Z,7.05
2019-02-28T06:47:15.342Z,6.98
2019-02-28T06:48:15.337Z,7.05
2019-02-28T06:49:15.361Z,7.13
2019-02-28T06:50:15.376Z,7.10
2019-02-28T06:51:16.755Z,7.13
2019-02-28T06:52:15.384Z,7.05
2019-02-28T06:53:15.397Z,7.05
2019-02-28T06:54:15.400Z,7.15
2019-02-28T06:55:15.623Z,7.03
2019-02-28T06:56:16.439Z,7.06
2019-02-28T06:57:15.442Z,7.07
2019-02-28T06:58:15.506Z,7.10
2019-02-28T06:59:15.464Z,7.12
2019-02-28T07:00:15.536Z,7.12
2019-02-28T07:01:15.569Z,7.23
2019-02-28T07:02:15.492Z,7.23
2019-02-28T07:03:15.507Z,7.13
2019-02-28T07:04:15.531Z,7.23
2019-02-28T07:05:15.533Z,7.15
2019-02-28T07:06:16.587Z,7.16
2019-02-28T07:07:15.567Z,7.07
2019-02-28T07:08:15.584Z,7.12
2019-02-28T07:09:15.604Z,7.17
2019-02-28T07:10:15.603Z,7.24
2019-02-28T07:11:15.606Z,7.16
2019-02-28T07:12:15.650Z,7.17
2019-02-28T07:13:15.620Z,7.21
2019-02-28T07:14:15.676Z,7.24
2019-02-28T07:15:15.656Z,7.25
2019-02-28T07:16:15.687Z,7.15
2019-02-28T07:17:15.698Z,7.17
2019-02-28T07:18:18.913Z,7.27
2019-02-28T07:19:15.691Z,7.28
2019-02-28T07:20:15.705Z,7.30
2019-02-28T07:21:16.273Z,7.30
2019-02-28T07:22:19.273Z,7.30
2019-02-28T07:23:15.830Z,7.31
2019-02-28T07:24:15.771Z,7.30
2019-02-28T07:25:15.747Z,7.35
2019-02-28T07:26:18.715Z,7.35
2019-02-28T07:27:15.777Z,7.28
2019-02-28T07:28:15.786Z,7.42
2019-02-28T07:29:15.805Z,7.43
2019-02-28T07:30:18.784Z,7.45
2019-02-28T07:31:15.822Z,7.45
2019-02-28T07:32:15.865Z,7.53
2019-02-28T07:33:15.850Z,7.49
2019-02-28T07:34:19.295Z,7.50
2019-02-28T07:35:15.864Z,7.45
2019-02-28T07:36:16.045Z,7.34
2019-02-28T07:37:18.570Z,7.42
2019-02-28T07:38:15.892Z,7.45
2019-02-28T07:39:15.906Z,7.42
2019-02-28T07:40:17.056Z,7.40
2019-02-28T07:41:15.944Z,7.46
2019-02-28T07:42:15.939Z,7.46
2019-02-28T07:43:15.956Z,7.57
2019-02-28T07:44:21.249Z,7.49
2019-02-28T07:45:16.213Z,7.64
2019-02-28T07:46:15.994Z,7.61
2019-02-28T07:47:17.352Z,7.64
2019-02-28T07:48:16.075Z,7.58
2019-02-28T07:49:16.024Z,7.75
2019-02-28T07:50:16.046Z,7.61
2019-02-28T07:51:18.493Z,7.68
2019-02-28T07:52:16.052Z,7.75
2019-02-28T07:53:16.075Z,7.69
2019-02-28T07:54:16.695Z,7.75
2019-02-28T07:55:16.085Z,7.71
2019-02-28T07:56:16.108Z,7.77
2019-02-28T07:57:17.252Z,7.67
2019-02-28T07:58:16.116Z,7.71
2019-02-28T07:59:16.221Z,7.67
2019-02-28T08:00:18.258Z,7.71
2019-02-28T08:01:18.321Z,7.79
2019-02-28T08:02:16.217Z,7.83
2019-02-28T08:03:16.191Z,7.86
2019-02-28T08:04:18.550Z,7.92
2019-02-28T08:05:16.233Z,7.86
2019-02-28T08:06:16.326Z,7.86
2019-02-28T08:07:16.234Z,7.92
2019-02-28T08:08:16.397Z,7.95
2019-02-28T08:09:16.284Z,7.95
2019-02-28T08:10:16.793Z,8.01
2019-02-28T08:11:16.271Z,8.02
2019-02-28T08:12:16.291Z,8.00
2019-02-28T08:13:16.288Z,7.97
2019-02-28T08:14:16.323Z,7.95
2019-02-28T08:15:21.111Z,8.04
2019-02-28T08:16:16.662Z,7.95
2019-02-28T08:17:16.390Z,7.98
2019-02-28T08:18:18.897Z,8.01
2019-02-28T08:19:16.422Z,7.95
2019-02-28T08:20:16.408Z,8.01
2019-02-28T08:21:17.072Z,8.00
2019-02-28T08:22:16.538Z,8.04
2019-02-28T08:23:16.687Z,8.02
2019-02-28T08:24:16.435Z,8.02
2019-02-28T08:25:18.893Z,8.15
2019-02-28T08:26:18.800Z,8.16
2019-02-28T08:27:16.469Z,8.20
2019-02-28T08:28:16.555Z,8.22
2019-02-28T08:29:16.691Z,8.30
2019-02-28T08:30:19.480Z,8.36
2019-02-28T08:31:16.499Z,8.34
2019-02-28T08:32:16.511Z,8.34
2019-02-28T08:33:17.154Z,8.37
2019-02-28T08:34:16.539Z,8.44
2019-02-28T08:35:16.539Z,8.50
2019-02-28T08:36:16.569Z,8.53
2019-02-28T08:37:18.938Z,8.53
2019-02-28T08:38:16.572Z,8.63
2019-02-28T08:39:16.596Z,8.61
2019-02-28T08:40:16.615Z,8.59
2019-02-28T08:41:16.612Z,8.73
2019-02-28T08:42:16.625Z,8.73
2019-02-28T08:43:26.640Z,8.63
2019-02-28T08:44:22.693Z,8.68
2019-02-28T08:45:16.670Z,8.62
2019-02-28T08:46:16.677Z,8.79
2019-02-28T08:47:17.824Z,8.79
2019-02-28T08:48:16.697Z,8.84
2019-02-28T08:49:16.712Z,8.84
2019-02-28T08:50:20.554Z,8.76
2019-02-28T08:51:16.739Z,8.81
2019-02-28T08:52:16.750Z,8.73
2019-02-28T08:53:16.759Z,8.84
2019-02-28T08:54:16.833Z,8.99
2019-02-28T08:55:16.786Z,8.99
2019-02-28T08:56:16.796Z,9.21
2019-02-28T08:57:16.816Z,9.11
2019-02-28T08:58:16.823Z,9.17
2019-02-28T08:59:20.510Z,9.11
2019-02-28T09:00:16.862Z,9.20
2019-02-28T09:01:16.880Z,9.15
2019-02-28T09:02:18.126Z,9.24
2019-02-28T09:03:16.886Z,9.29
2019-02-28T09:04:16.899Z,9.39
2019-02-28T09:05:16.908Z,9.46
2019-02-28T09:06:16.915Z,9.48
2019-02-28T09:07:16.933Z,9.53
2019-02-28T09:08:16.943Z,9.50
2019-02-28T09:09:16.953Z,9.51
2019-02-28T09:10:16.975Z,9.50
2019-02-28T09:11:20.772Z,9.56
2019-02-28T09:12:16.993Z,9.54
2019-02-28T09:13:17.006Z,9.50
2019-02-28T09:14:17.988Z,9.51
2019-02-28T09:15:17.031Z,9.60
2019-02-28T09:16:17.044Z,9.56
2019-02-28T09:17:18.546Z,9.56
2019-02-28T09:18:17.065Z,9.60
2019-02-28T09:19:17.076Z,9.65
2019-02-28T09:20:17.100Z,9.74
2019-02-28T09:21:18.407Z,9.74
2019-02-28T09:22:17.136Z,9.83
2019-02-28T09:23:17.519Z,9.90
2019-02-28T09:24:17.150Z,9.84
2019-02-28T09:25:21.400Z,9.91
2019-02-28T09:26:17.195Z,9.97
2019-02-28T09:27:17.178Z,10.05
2019-02-28T09:28:17.191Z,10.09
2019-02-28T09:29:18.391Z,10.18
2019-02-28T09:30:17.215Z,10.23
2019-02-28T09:31:17.226Z,10.14
2019-02-28T09:32:17.616Z,10.08
2019-02-28T09:33:19.247Z,9.93
2019-02-28T09:34:17.317Z,9.91
2019-02-28T09:35:17.277Z,9.99
2019-02-28T09:36:20.670Z,9.94
2019-02-28T09:37:17.307Z,9.97
2019-02-28T09:38:17.326Z,9.90
2019-02-28T09:39:19.430Z,9.90
2019-02-28T09:40:17.350Z,9.91
2019-02-28T09:41:19.042Z,10.08
2019-02-28T09:42:17.369Z,10.04
2019-02-28T09:43:17.377Z,10.12
2019-02-28T09:44:17.391Z,10.20
2019-02-28T09:45:17.407Z,10.33
2019-02-28T09:46:18.819Z,10.41
2019-02-28T09:47:17.422Z,10.40
2019-02-28T09:48:17.447Z,10.48
2019-02-28T09:49:18.330Z,10.66
2019-02-28T09:50:19.364Z,10.63
2019-02-28T09:51:17.601Z,10.64
2019-02-28T09:52:17.504Z,10.63
2019-02-28T09:53:17.509Z,10.68
2019-02-28T09:54:17.518Z,10.61
2019-02-28T09:55:17.526Z,10.59
2019-02-28T09:56:19.435Z,10.60
2019-02-28T09:57:18.892Z,10.67
2019-02-28T09:58:17.574Z,10.63
2019-02-28T09:59:17.588Z,10.53
2019-02-28T10:00:17.595Z,10.59
2019-02-28T10:01:17.617Z,10.71
2019-02-28T10:02:17.610Z,10.70
2019-02-28T10:03:18.550Z,10.73
2019-02-28T10:04:17.648Z,10.74
2019-02-28T10:05:17.649Z,10.82
2019-02-28T10:06:17.669Z,10.82
2019-02-28T10:07:17.679Z,10.96
2019-02-28T10:08:17.686Z,10.96
2019-02-28T10:09:17.806Z,10.92
2019-02-28T10:10:21.014Z,11.10
2019-02-28T10:11:18.792Z,11.15
2019-02-28T10:12:17.739Z,11.35
2019-02-28T10:13:18.535Z,11.36
2019-02-28T10:14:18.160Z,11.49
2019-02-28T10:15:17.784Z,11.46
2019-02-28T10:16:17.798Z,11.51
2019-02-28T10:17:17.828Z,11.70
2019-02-28T10:18:17.816Z,11.70
2019-02-28T10:19:17.844Z,11.85
2019-02-28T10:20:17.861Z,11.85
2019-02-28T10:21:17.877Z,11.85
2019-02-28T10:22:17.889Z,11.70
2019-02-28T10:23:18.493Z,11.72
2019-02-28T10:24:17.923Z,11.70
2019-02-28T10:25:17.949Z,11.75
2019-02-28T10:26:17.975Z,11.90
2019-02-28T10:27:17.947Z,11.94
2019-02-28T10:28:17.964Z,12.13
2019-02-28T10:29:17.967Z,12.20
2019-02-28T10:30:17.989Z,12.19
2019-02-28T10:31:18.242Z,12.31
2019-02-28T10:32:18.005Z,12.31
2019-02-28T10:33:18.148Z,12.21
2019-02-28T10:34:18.037Z,12.24
2019-02-28T10:35:18.564Z,12.14
2019-02-28T10:36:18.059Z,12.16
2019-02-28T10:37:19.293Z,12.21
2019-02-28T10:38:18.135Z,12.32
2019-02-28T10:39:18.126Z,12.41
2019-02-28T10:40:18.723Z,12.50
2019-02-28T10:41:18.160Z,12.54
2019-02-28T10:42:18.146Z,12.72
2019-02-28T10:43:18.153Z,12.65
2019-02-28T10:44:19.196Z,12.67
2019-02-28T10:45:18.182Z,12.71
2019-02-28T10:46:20.247Z,12.74
2019-02-28T10:47:18.207Z,12.77
2019-02-28T10:48:18.228Z,12.65
2019-02-28T10:49:21.054Z,12.72
2019-02-28T10:50:18.268Z,12.67
2019-02-28T10:51:18.832Z,12.72
2019-02-28T10:52:18.277Z,12.77
2019-02-28T10:53:18.291Z,12.82
2019-02-28T10:54:18.303Z,12.70
2019-02-28T10:55:19.374Z,12.78
2019-02-28T10:57:18.351Z,12.82
2019-02-28T10:58:18.472Z,12.83
2019-02-28T10:59:21.341Z,12.75
2019-02-28T11:00:20.193Z,12.77
2019-02-28T11:01:18.414Z,12.82
2019-02-28T11:02:19.747Z,12.77
2019-02-28T11:03:18.424Z,12.82
2019-02-28T11:04:18.549Z,12.77
2019-02-28T11:05:19.562Z,12.87
2019-02-28T11:06:18.464Z,12.75
2019-02-28T11:07:18.480Z,12.86
2019-02-28T11:08:19.259Z,12.82
2019-02-28T11:09:21.729Z,12.79
2019-02-28T11:10:18.543Z,12.85
2019-02-28T11:11:18.537Z,12.82
2019-02-28T11:12:20.302Z,12.75
2019-02-28T11:13:18.564Z,12.83
2019-02-28T11:14:18.580Z,12.77
2019-02-28T11:15:18.598Z,12.86
2019-02-28T11:16:20.459Z,12.78
2019-02-28T11:17:18.643Z,12.78
2019-02-28T11:18:18.928Z,12.86
2019-02-28T11:19:19.544Z,12.90
2019-02-28T11:20:22.053Z,12.86
2019-02-28T11:21:18.673Z,12.79
2019-02-28T11:22:18.680Z,12.86
2019-02-28T11:23:18.696Z,13.04
2019-02-28T11:24:20.661Z,13.03
2019-02-28T11:25:18.733Z,13.14
2019-02-28T11:26:18.751Z,13.20
2019-02-28T11:27:19.683Z,13.22
2019-02-28T11:28:18.783Z,13.20
2019-02-28T11:29:18.795Z,13.25
2019-02-28T11:30:18.799Z,13.32
2019-02-28T11:31:19.165Z,13.38
2019-02-28T11:32:18.887Z,13.38
2019-02-28T11:33:18.851Z,13.41
2019-02-28T11:34:18.879Z,13.48
2019-02-28T11:35:20.178Z,13.54
2019-02-28T11:36:18.880Z,13.57
2019-02-28T11:37:18.898Z,13.60
2019-02-28T11:38:21.455Z,13.69
2019-02-28T11:39:18.918Z,13.70
2019-02-28T11:40:18.934Z,13.67
2019-02-28T11:41:19.670Z,13.60
2019-02-28T11:42:18.962Z,13.60
2019-02-28T11:43:18.995Z,13.60
2019-02-28T11:44:19.202Z,13.69
2019-02-28T11:45:21.937Z,13.85
2019-02-28T11:46:19.015Z,13.91
2019-02-28T11:47:19.028Z,13.85
2019-02-28T11:48:20.247Z,13.91
2019-02-28T11:49:19.073Z,13.88
2019-02-28T11:50:19.069Z,13.81
2019-02-28T11:51:19.087Z,13.63
2019-02-28T11:52:19.103Z,13.57
2019-02-28T11:53:19.322Z,13.70
2019-02-28T11:54:19.131Z,13.88
2019-02-28T11:55:20.321Z,14.03
2019-02-28T11:56:19.153Z,14.00
2019-02-28T11:57:20.606Z,14.02
2019-02-28T11:58:19.182Z,14.06
2019-02-28T11:59:19.198Z,14.07
2019-02-28T12:00:19.210Z,13.95
2019-02-28T12:01:19.252Z,13.88
2019-02-28T12:02:20.242Z,13.88
2019-02-28T12:03:19.345Z,13.73
2019-02-28T12:04:19.287Z,13.70
2019-02-28T12:05:19.291Z,13.66
2019-02-28T12:06:19.298Z,13.69
2019-02-28T12:07:19.330Z,13.67
2019-02-28T12:08:19.526Z,13.71
2019-02-28T12:09:20.048Z,13.71
2019-02-28T12:10:19.363Z,13.73
2019-02-28T12:11:19.372Z,13.75
2019-02-28T12:12:19.383Z,13.77
2019-02-28T12:13:20.469Z,13.88
2019-02-28T12:14:19.436Z,13.89
2019-02-28T12:15:19.443Z,13.89
2019-02-28T12:16:20.310Z,13.91
2019-02-28T12:17:19.454Z,13.89
2019-02-28T12:18:19.462Z,13.85
2019-02-28T12:19:19.475Z,13.84
2019-02-28T12:20:26.127Z,13.91
2019-02-28T12:22:19.513Z,13.96
2019-02-28T12:23:23.150Z,13.95
2019-02-28T12:24:19.555Z,13.89
2019-02-28T12:25:19.608Z,14.03
2019-02-28T12:26:21.051Z,13.99
2019-02-28T12:27:19.978Z,13.97
2019-02-28T12:28:19.641Z,13.91
2019-02-28T12:29:19.648Z,13.88
2019-02-28T12:30:21.936Z,13.89
2019-02-28T12:31:19.655Z,13.87
2019-02-28T12:32:19.670Z,13.97
2019-02-28T12:33:23.162Z,13.92
2019-02-28T12:34:19.695Z,13.85
2019-02-28T12:35:19.696Z,13.95
2019-02-28T12:36:19.745Z,14.00
2019-02-28T12:37:22.049Z,14.07
2019-02-28T12:38:19.738Z,13.92
2019-02-28T12:39:19.770Z,13.97
2019-02-28T12:40:19.800Z,14.02
2019-02-28T12:41:21.677Z,14.15
2019-02-28T12:42:19.798Z,14.35
2019-02-28T12:43:19.819Z,14.17
2019-02-28T12:44:19.841Z,14.17
2019-02-28T12:45:21.213Z,14.14
2019-02-28T12:46:19.876Z,14.15
2019-02-28T12:47:19.868Z,14.24
2019-02-28T12:48:19.919Z,14.27
2019-02-28T12:49:22.212Z,14.32
2019-02-28T12:50:19.915Z,14.36
2019-02-28T12:51:19.942Z,14.46
2019-02-28T12:53:24.251Z,14.58
2019-02-28T12:54:20.134Z,14.61
2019-02-28T12:55:19.998Z,14.55
2019-02-28T12:56:20.381Z,14.58
2019-02-28T12:57:22.384Z,14.46
2019-02-28T12:58:20.046Z,14.46
2019-02-28T12:59:20.042Z,14.43
2019-02-28T13:00:23.311Z,14.43
2019-02-28T13:01:20.074Z,14.42
2019-02-28T13:02:20.101Z,14.52
2019-02-28T13:03:21.185Z,14.52
2019-02-28T13:04:20.121Z,14.45
2019-02-28T13:05:20.134Z,14.39
2019-02-28T13:06:23.428Z,14.36
2019-02-28T13:07:20.164Z,14.37
2019-02-28T13:08:20.222Z,14.18
2019-02-28T13:09:20.184Z,14.24
2019-02-28T13:10:20.192Z,14.36
2019-02-28T13:11:20.208Z,14.35
2019-02-28T13:12:20.223Z,14.24